This is the latest recevied weather packets stored in our database for station/object EA3IBE-10. If no packets are shown the sender has not sent any weather packets the latest 10 day(s).
| Time | Temp. | Humidity | Pressure | Rain* | Wind** | Luminosity | Snow |
|---|---|---|---|---|---|---|---|
| 1777538970 | 23.89° C | 42% | 1014.8 hPa | - | - | - | - |
| 1777538958 | 23.89° C | 42% | 1014.8 hPa | - | - | - | - |
| 1777536570 | 25.56° C | 42% | 1014.4 hPa | - | - | - | - |
| 1777536558 | 25.56° C | 42% | 1014.4 hPa | - | - | - | - |
| 1777534158 | 19.44° C | 60% | 1014.2 hPa | - | - | - | - |
| 1777531758 | 16.67° C | 78% | 1013.9 hPa | - | - | - | - |
| 1777529358 | 15° C | 84% | 1014 hPa | - | - | - | - |
| 1777526958 | 13.33° C | 96% | 1013.7 hPa | - | - | - | - |
| 1777524558 | 12.22° C | 100% | 1013 hPa | - | - | - | - |
| 1777522157 | 12.22° C | 100% | 1012.7 hPa | - | - | - | - |
| 1777519757 | 12.78° C | 100% | 1012.8 hPa | - | - | - | - |
| 1777517357 | 12.78° C | 100% | 1012.9 hPa | - | - | - | - |
| 1777514957 | 12.78° C | 100% | 1012.8 hPa | - | - | - | - |
| 1777512557 | 13.33° C | 100% | 1013 hPa | - | - | - | - |
| 1777510157 | 13.89° C | 100% | 1013 hPa | - | - | - | - |
| 1777507757 | 14.44° C | 100% | 1013.1 hPa | - | - | - | - |
| 1777505357 | 15.56° C | 100% | 1013 hPa | - | - | - | - |
| 1777502957 | 16.11° C | 100% | 1013 hPa | - | - | - | - |
| 1777500557 | 16.11° C | 100% | 1013 hPa | - | - | - | - |
| 1777498157 | 16.11° C | 100% | 1012.9 hPa | - | - | - | - |
| 1777495756 | 16.11° C | 100% | 1012.6 hPa | - | - | - | - |
| 1777493356 | 16.67° C | 97% | 1012.5 hPa | - | - | - | - |
| 1777490956 | 17.22° C | 95% | 1011.8 hPa | - | - | - | - |
| 1777488556 | 18.89° C | 88% | 1011.1 hPa | - | - | - | - |
| 1777486156 | 21.11° C | 61% | 1010.4 hPa | - | - | - | - |
* Rain since midnight (hover to see other rain measurements)
** Current wind speed in m/s (hover to see current wind gust speed)